Time;durP1;ratioP1;P1;durP2;ratioP2;P2;SDS_P1;SDS_P2;PMS_P1;PMS_P2;Temp;Humidity;BMP_temperature;BMP_pressure;BME280_temperature;BME280_humidity;BME280_pressure;Samples;Min_cycle;Max_cycle;Signal;HPM_P1;HPM_P2
2021/08/07 00:01:19;;;;;;;59.33;56.67;;;;;;;;;;4994264;28;20057;-83
2021/08/07 00:03:49;;;;;;;62.97;60.00;;;;;;;;;;5000361;28;20526;-86
2021/08/07 00:06:16;;;;;;;49.17;47.05;;;;;;;;;;4983613;28;20565;-83
2021/08/07 00:08:42;;;;;;;53.78;51.40;;;;;;;;;;4999730;28;20050;-83
2021/08/07 00:11:09;;;;;;;51.85;49.25;;;;;;;;;;4998968;28;20491;-84
2021/08/07 00:13:36;;;;;;;48.67;46.42;;;;;;;;;;4981139;28;20050;-83
2021/08/07 00:16:03;;;;;;;51.58;49.15;;;;;;;;;;4995304;28;20050;-83
2021/08/07 00:18:31;;;;;;;53.13;50.70;;;;;;;;;;5001012;28;20054;-83
2021/08/07 00:20:58;;;;;;;45.70;43.63;;;;;;;;;;4998958;28;20423;-83
2021/08/07 00:23:25;;;;;;;57.13;54.53;;;;;;;;;;4999621;28;20051;-83
2021/08/07 00:25:52;;;;;;;55.53;52.95;;;;;;;;;;4997905;28;20506;-83
2021/08/07 00:28:18;;;;;;;49.42;46.75;;;;;;;;;;4999259;28;20051;-84
2021/08/07 00:30:45;;;;;;;60.83;58.03;;;;;;;;;;4997840;28;20047;-83
2021/08/07 00:33:12;;;;;;;61.83;58.67;;;;;;;;;;4995375;28;20043;-82
2021/08/07 00:35:40;;;;;;;61.55;58.55;;;;;;;;;;5000856;28;20038;-83
2021/08/07 00:38:06;;;;;;;68.45;65.25;;;;;;;;;;5000592;28;20085;-83
2021/08/07 00:40:33;;;;;;;59.65;56.97;;;;;;;;;;5000077;28;20422;-83
2021/08/07 00:43:00;;;;;;;41.83;39.83;;;;;;;;;;4996367;28;20046;-82
2021/08/07 00:45:26;;;;;;;51.40;49.00;;;;;;;;;;4996841;28;20054;-83
2021/08/07 00:47:53;;;;;;;50.60;48.10;;;;;;;;;;5000077;28;20046;-83
2021/08/07 00:50:20;;;;;;;53.28;50.80;;;;;;;;;;4998868;28;20121;-83
2021/08/07 00:52:47;;;;;;;61.42;58.42;;;;;;;;;;5000109;28;20062;-83
2021/08/07 00:55:14;;;;;;;34.13;32.55;;;;;;;;;;5000964;28;20501;-82
2021/08/07 00:57:43;;;;;;;42.75;40.72;;;;;;;;;;4983006;28;20054;-84
2021/08/07 01:00:10;;;;;;;41.78;39.80;;;;;;;;;;4998809;28;20046;-84
2021/08/07 01:02:37;;;;;;;42.65;40.70;;;;;;;;;;4997551;28;20112;-83
2021/08/07 01:05:07;;;;;;;42.13;40.22;;;;;;;;;;4982940;28;20514;-83
2021/08/07 01:07:39;;;;;;;45.30;43.20;;;;;;;;;;4998380;28;20049;-83
2021/08/07 01:10:11;;;;;;;40.78;38.90;;;;;;;;;;5000051;28;20046;-83
2021/08/07 01:12:43;;;;;;;29.08;27.52;;;;;;;;;;4999671;28;20046;-84
2021/08/07 01:15:13;;;;;;;52.88;50.47;;;;;;;;;;4999669;28;20045;-84
2021/08/07 01:17:42;;;;;;;50.75;48.40;;;;;;;;;;4997791;28;20055;-84
2021/08/07 01:20:13;;;;;;;48.83;46.55;;;;;;;;;;4998919;28;20043;-83
2021/08/07 01:22:49;;;;;;;53.28;50.63;;;;;;;;;;4996697;28;20050;-84
2021/08/07 01:25:18;;;;;;;51.05;48.28;;;;;;;;;;4994041;28;20046;-84
2021/08/07 01:27:47;;;;;;;52.28;49.78;;;;;;;;;;4999709;28;20043;-85
2021/08/07 01:30:17;;;;;;;29.88;28.42;;;;;;;;;;4995064;28;20050;-84
2021/08/07 01:32:44;;;;;;;48.45;46.15;;;;;;;;;;4997716;28;20038;-84
2021/08/07 01:35:11;;;;;;;39.58;37.47;;;;;;;;;;4992065;28;20590;-81
2021/08/07 01:37:40;;;;;;;41.10;38.95;;;;;;;;;;4997968;28;20057;-81
2021/08/07 01:40:07;;;;;;;45.50;43.42;;;;;;;;;;4999293;28;20054;-81
2021/08/07 01:42:34;;;;;;;47.33;45.15;;;;;;;;;;4996892;28;20506;-84
2021/08/07 01:45:02;;;;;;;50.55;48.20;;;;;;;;;;4998536;28;20506;-81
2021/08/07 01:47:40;;;;;;;45.25;43.22;;;;;;;;;;4992465;28;20047;-81
2021/08/07 01:50:08;;;;;;;45.85;43.75;;;;;;;;;;4997309;28;20068;-83
2021/08/07 01:52:38;;;;;;;53.88;51.35;;;;;;;;;;4995267;28;20046;-81
2021/08/07 01:55:08;;;;;;;51.35;48.92;;;;;;;;;;4998791;28;20080;-82
2021/08/07 01:57:35;;;;;;;49.38;47.13;;;;;;;;;;4996496;28;20458;-81
2021/08/07 02:00:04;;;;;;;52.92;50.50;;;;;;;;;;4997720;28;20038;-84
2021/08/07 02:02:31;;;;;;;41.83;40.03;;;;;;;;;;4999521;28;20149;-84
2021/08/07 02:04:59;;;;;;;46.42;44.40;;;;;;;;;;4982912;28;20093;-84
2021/08/07 02:07:27;;;;;;;35.85;33.88;;;;;;;;;;4999607;28;20046;-82
2021/08/07 02:09:54;;;;;;;34.20;32.65;;;;;;;;;;4998295;28;20046;-85
2021/08/07 02:12:20;;;;;;;44.20;42.08;;;;;;;;;;5002412;28;20046;-83
2021/08/07 02:14:49;;;;;;;47.40;45.10;;;;;;;;;;5002474;28;20065;-84
2021/08/07 02:17:17;;;;;;;53.85;51.45;;;;;;;;;;4997704;28;20058;-84
2021/08/07 02:19:43;;;;;;;49.60;47.30;;;;;;;;;;4996693;28;20050;-84
2021/08/07 02:22:10;;;;;;;45.70;43.70;;;;;;;;;;4998361;28;20053;-84
2021/08/07 02:24:37;;;;;;;34.47;32.72;;;;;;;;;;4997214;28;20050;-84
2021/08/07 02:27:04;;;;;;;28.80;27.40;;;;;;;;;;4997082;28;20061;-81
2021/08/07 02:29:32;;;;;;;28.88;27.58;;;;;;;;;;4995796;28;20049;-81
2021/08/07 02:32:00;;;;;;;23.95;22.80;;;;;;;;;;4998639;28;20049;-84
2021/08/07 02:34:28;;;;;;;24.00;22.90;;;;;;;;;;4995796;28;20058;-83
2021/08/07 02:36:56;;;;;;;26.33;24.77;;;;;;;;;;4996237;28;20042;-83
2021/08/07 02:39:23;;;;;;;44.20;42.03;;;;;;;;;;4997617;28;20043;-83
2021/08/07 02:41:50;;;;;;;44.88;42.85;;;;;;;;;;4994724;28;20042;-83
2021/08/07 02:44:17;;;;;;;28.88;27.58;;;;;;;;;;4998561;28;20418;-83
2021/08/07 02:46:44;;;;;;;46.38;44.10;;;;;;;;;;4995893;28;20448;-83
2021/08/07 02:49:10;;;;;;;26.63;25.38;;;;;;;;;;4996744;28;20042;-83
2021/08/07 02:51:40;;;;;;;27.90;26.50;;;;;;;;;;4997108;28;20054;-83
2021/08/07 02:54:06;;;;;;;43.80;41.83;;;;;;;;;;4998122;28;20058;-83
2021/08/07 02:56:33;;;;;;;41.55;39.70;;;;;;;;;;4998519;28;20058;-83
2021/08/07 02:59:00;;;;;;;31.13;29.58;;;;;;;;;;4996999;28;20054;-84
2021/08/07 03:01:27;;;;;;;41.30;39.33;;;;;;;;;;4998806;28;20491;-84
2021/08/07 03:03:53;;;;;;;25.27;24.00;;;;;;;;;;4998682;28;20038;-83
2021/08/07 03:06:22;;;;;;;44.45;42.47;;;;;;;;;;4997335;28;20042;-83
2021/08/07 03:08:50;;;;;;;40.55;38.65;;;;;;;;;;4994225;28;20130;-83
2021/08/07 03:11:17;;;;;;;41.92;39.92;;;;;;;;;;4996629;28;20042;-83
2021/08/07 03:13:44;;;;;;;28.98;27.40;;;;;;;;;;4997118;28;20243;-83
2021/08/07 03:16:11;;;;;;;33.97;32.38;;;;;;;;;;4994810;28;20042;-83
2021/08/07 03:18:38;;;;;;;40.80;38.90;;;;;;;;;;4993227;28;20110;-83
2021/08/07 03:21:06;;;;;;;33.45;31.70;;;;;;;;;;4996754;28;20042;-83
2021/08/07 03:23:32;;;;;;;33.90;32.13;;;;;;;;;;4997854;28;20495;-83
2021/08/07 03:26:00;;;;;;;42.30;40.47;;;;;;;;;;4992715;28;20046;-83
2021/08/07 03:28:27;;;;;;;44.13;41.85;;;;;;;;;;4998014;28;20066;-83
2021/08/07 03:30:53;;;;;;;42.00;40.10;;;;;;;;;;4996048;28;20359;-83
2021/08/07 03:33:20;;;;;;;47.50;45.45;;;;;;;;;;4996191;28;20046;-83
2021/08/07 03:35:46;;;;;;;44.60;42.50;;;;;;;;;;4997422;28;20065;-84
2021/08/07 03:38:13;;;;;;;49.53;47.33;;;;;;;;;;5000056;28;20045;-83
2021/08/07 03:40:39;;;;;;;40.78;38.75;;;;;;;;;;5002168;28;20049;-83
2021/08/07 03:43:07;;;;;;;38.53;36.45;;;;;;;;;;5001145;28;20047;-83
2021/08/07 03:45:34;;;;;;;33.22;31.67;;;;;;;;;;5001463;28;20050;-83
2021/08/07 03:48:01;;;;;;;35.97;34.25;;;;;;;;;;4999710;28;20506;-83
2021/08/07 03:50:28;;;;;;;40.10;37.95;;;;;;;;;;4997545;28;20043;-83
2021/08/07 03:52:54;;;;;;;33.30;31.67;;;;;;;;;;4996933;28;20038;-84
2021/08/07 03:55:21;;;;;;;38.33;36.72;;;;;;;;;;4999434;28;20101;-83
2021/08/07 03:57:50;;;;;;;40.85;38.97;;;;;;;;;;5001749;28;20045;-83
2021/08/07 04:00:18;;;;;;;36.13;34.22;;;;;;;;;;5001912;28;20061;-82
2021/08/07 04:02:45;;;;;;;35.65;33.58;;;;;;;;;;5000154;28;20050;-83
2021/08/07 04:05:12;;;;;;;46.13;43.97;;;;;;;;;;4997187;28;20042;-83
2021/08/07 04:07:39;;;;;;;48.92;46.42;;;;;;;;;;5000599;28;20042;-84
2021/08/07 04:10:06;;;;;;;49.30;46.85;;;;;;;;;;5000239;28;20046;-84
2021/08/07 04:12:33;;;;;;;37.38;35.58;;;;;;;;;;4998442;28;20045;-84
2021/08/07 04:15:00;;;;;;;33.40;31.35;;;;;;;;;;5001803;28;20042;-83
2021/08/07 04:17:27;;;;;;;33.05;31.15;;;;;;;;;;5001971;28;20046;-83
2021/08/07 04:19:54;;;;;;;34.22;32.53;;;;;;;;;;4999429;28;20050;-84
2021/08/07 04:22:21;;;;;;;40.92;39.03;;;;;;;;;;4982932;28;20054;-83
2021/08/07 04:24:48;;;;;;;60.22;57.53;;;;;;;;;;4997847;28;20046;-83
2021/08/07 04:27:15;;;;;;;54.75;52.28;;;;;;;;;;5000021;28;20053;-83
2021/08/07 04:29:42;;;;;;;43.28;41.42;;;;;;;;;;4999306;28;20515;-84
2021/08/07 04:32:08;;;;;;;63.25;60.40;;;;;;;;;;4999074;28;20054;-83
2021/08/07 04:34:36;;;;;;;112.13;107.30;;;;;;;;;;4983480;28;20057;-83
2021/08/07 04:37:03;;;;;;;110.65;105.85;;;;;;;;;;4999047;28;20038;-84
2021/08/07 04:39:30;;;;;;;103.57;99.10;;;;;;;;;;5001002;28;20049;-83
2021/08/07 04:41:57;;;;;;;104.93;100.07;;;;;;;;;;5000572;28;20046;-83
2021/08/07 04:44:23;;;;;;;106.97;102.47;;;;;;;;;;4996583;28;20042;-83
2021/08/07 04:46:50;;;;;;;104.00;99.55;;;;;;;;;;5000329;28;20043;-84
2021/08/07 04:49:17;;;;;;;113.65;108.88;;;;;;;;;;4997811;28;20058;-83
2021/08/07 04:51:45;;;;;;;101.90;97.53;;;;;;;;;;4994890;28;20049;-84
2021/08/07 04:54:12;;;;;;;106.32;101.40;;;;;;;;;;5000547;28;20046;-84
2021/08/07 04:56:39;;;;;;;117.00;111.80;;;;;;;;;;4995560;28;20051;-84
2021/08/07 04:59:06;;;;;;;95.43;91.03;;;;;;;;;;5000718;28;20050;-84
2021/08/07 05:01:33;;;;;;;84.20;80.43;;;;;;;;;;4998186;28;20062;-83
2021/08/07 05:03:59;;;;;;;125.85;120.55;;;;;;;;;;4999358;28;20046;-83
2021/08/07 05:06:26;;;;;;;123.00;117.63;;;;;;;;;;4996860;28;20046;-83
2021/08/07 05:08:54;;;;;;;120.53;115.38;;;;;;;;;;4998125;28;20406;-83
2021/08/07 05:11:20;;;;;;;116.18;111.30;;;;;;;;;;5000493;28;20042;-83
2021/08/07 05:13:47;;;;;;;112.32;107.40;;;;;;;;;;4998390;28;20057;-80
2021/08/07 05:16:13;;;;;;;106.18;101.45;;;;;;;;;;5001042;28;20060;-81
2021/08/07 05:18:40;;;;;;;128.50;123.07;;;;;;;;;;5000362;28;20491;-83
2021/08/07 05:21:07;;;;;;;117.88;112.97;;;;;;;;;;5002352;28;20053;-82
2021/08/07 05:23:34;;;;;;;90.10;86.38;;;;;;;;;;4984057;28;20061;-81
2021/08/07 05:26:01;;;;;;;126.93;121.82;;;;;;;;;;4999272;28;20601;-83
2021/08/07 05:28:28;;;;;;;115.13;110.38;;;;;;;;;;4996635;28;20046;-84
2021/08/07 05:30:55;;;;;;;123.13;118.07;;;;;;;;;;4995552;28;20054;-81
2021/08/07 05:33:22;;;;;;;130.70;125.20;;;;;;;;;;4998192;28;20050;-81
2021/08/07 05:35:48;;;;;;;134.43;128.70;;;;;;;;;;4998549;28;20053;-81
2021/08/07 05:38:17;;;;;;;118.45;113.45;;;;;;;;;;4997916;28;20503;-81
2021/08/07 05:40:44;;;;;;;124.88;119.85;;;;;;;;;;4996921;28;20054;-81
2021/08/07 05:43:12;;;;;;;118.20;113.32;;;;;;;;;;4997971;28;20476;-84
2021/08/07 05:45:39;;;;;;;136.43;130.50;;;;;;;;;;4994260;28;20042;-82
2021/08/07 05:48:05;;;;;;;143.82;137.70;;;;;;;;;;4996521;28;20046;-82
2021/08/07 05:50:34;;;;;;;130.23;124.78;;;;;;;;;;4996213;28;20046;-82
2021/08/07 05:53:01;;;;;;;141.27;135.43;;;;;;;;;;4996402;28;20046;-83
2021/08/07 05:55:27;;;;;;;130.18;124.68;;;;;;;;;;4995774;28;20459;-82
2021/08/07 05:57:54;;;;;;;147.50;141.20;;;;;;;;;;4998335;28;20392;-82
2021/08/07 06:00:22;;;;;;;137.20;131.35;;;;;;;;;;4994727;28;20050;-83
2021/08/07 06:02:49;;;;;;;143.05;137.32;;;;;;;;;;4995059;28;20047;-82
2021/08/07 06:05:15;;;;;;;116.82;111.93;;;;;;;;;;4998033;28;20061;-83
2021/08/07 06:07:42;;;;;;;130.20;124.50;;;;;;;;;;4996430;28;20042;-83
2021/08/07 06:10:10;;;;;;;124.13;118.88;;;;;;;;;;4994268;28;20046;-83
2021/08/07 06:12:36;;;;;;;145.20;138.68;;;;;;;;;;4997133;28;20134;-83
2021/08/07 06:15:04;;;;;;;140.63;134.43;;;;;;;;;;4999065;28;20038;-83
2021/08/07 06:17:32;;;;;;;163.02;156.20;;;;;;;;;;4995346;28;20054;-84
2021/08/07 06:19:59;;;;;;;162.82;155.95;;;;;;;;;;4985583;28;20568;-83
2021/08/07 06:22:26;;;;;;;153.93;147.52;;;;;;;;;;4990523;28;20050;-84
2021/08/07 06:24:53;;;;;;;153.35;146.77;;;;;;;;;;4992629;28;20298;-83
2021/08/07 06:27:20;;;;;;;158.23;150.82;;;;;;;;;;4995556;28;20057;-84
2021/08/07 06:29:47;;;;;;;159.35;152.50;;;;;;;;;;4982127;28;20050;-85
2021/08/07 06:32:13;;;;;;;162.55;155.18;;;;;;;;;;4997734;28;20048;-84
2021/08/07 06:34:42;;;;;;;186.05;178.02;;;;;;;;;;4993535;28;20046;-85
2021/08/07 06:37:08;;;;;;;153.32;146.80;;;;;;;;;;4998357;28;20077;-84
2021/08/07 06:39:37;;;;;;;195.48;187.23;;;;;;;;;;4996617;28;20042;-84
2021/08/07 06:42:04;;;;;;;201.85;192.88;;;;;;;;;;4996325;28;20050;-85
2021/08/07 06:44:31;;;;;;;209.27;200.35;;;;;;;;;;4996567;28;20049;-84
2021/08/07 06:46:58;;;;;;;214.40;205.32;;;;;;;;;;4998560;28;20093;-85
2021/08/07 06:49:27;;;;;;;200.38;191.68;;;;;;;;;;4990191;28;20042;-85
2021/08/07 06:51:56;;;;;;;189.80;181.38;;;;;;;;;;4992695;28;20042;-85
2021/08/07 06:54:23;;;;;;;168.65;161.27;;;;;;;;;;4995435;28;20052;-85
2021/08/07 06:56:50;;;;;;;150.57;144.00;;;;;;;;;;4978711;28;20042;-84
2021/08/07 06:59:17;;;;;;;140.18;133.48;;;;;;;;;;4978233;28;20418;-84
2021/08/07 07:01:44;;;;;;;145.15;138.48;;;;;;;;;;4973584;28;20050;-84
2021/08/07 07:04:11;;;;;;;129.82;124.07;;;;;;;;;;4958187;28;20130;-84
2021/08/07 07:06:37;;;;;;;126.50;120.60;;;;;;;;;;4958170;28;20117;-84
2021/08/07 07:09:05;;;;;;;128.43;122.72;;;;;;;;;;4973355;28;20416;-84
2021/08/07 07:11:32;;;;;;;131.88;125.90;;;;;;;;;;4975378;28;20053;-84
2021/08/07 07:13:59;;;;;;;118.30;112.95;;;;;;;;;;4977944;28;20711;-84
2021/08/07 07:16:26;;;;;;;123.25;117.63;;;;;;;;;;4996872;28;20057;-84
2021/08/07 07:18:52;;;;;;;128.07;122.40;;;;;;;;;;4998374;28;20062;-84
2021/08/07 07:21:19;;;;;;;114.07;108.40;;;;;;;;;;4997194;28;20056;-83
2021/08/07 07:23:46;;;;;;;109.57;104.75;;;;;;;;;;4997510;28;20149;-83
2021/08/07 07:26:14;;;;;;;107.70;102.53;;;;;;;;;;4992536;28;20621;-83
2021/08/07 07:28:41;;;;;;;108.28;103.40;;;;;;;;;;4994340;28;20058;-83
2021/08/07 07:31:08;;;;;;;106.28;101.47;;;;;;;;;;4988059;28;20058;-83
2021/08/07 07:33:35;;;;;;;92.80;88.75;;;;;;;;;;4979803;28;20054;-84
2021/08/07 07:36:01;;;;;;;96.03;91.75;;;;;;;;;;4996177;28;20046;-83
2021/08/07 07:38:30;;;;;;;99.72;95.53;;;;;;;;;;4996063;28;20058;-84
2021/08/07 07:40:57;;;;;;;80.25;76.80;;;;;;;;;;4991878;28;20046;-84
2021/08/07 07:43:26;;;;;;;77.45;74.07;;;;;;;;;;4981795;28;20049;-84
2021/08/07 07:45:53;;;;;;;68.70;65.80;;;;;;;;;;4997730;28;20407;-85
2021/08/07 07:48:19;;;;;;;79.45;75.95;;;;;;;;;;4996758;28;20058;-84
2021/08/07 07:50:46;;;;;;;70.82;67.68;;;;;;;;;;4984259;28;20067;-84
2021/08/07 07:53:13;;;;;;;69.97;67.00;;;;;;;;;;4976700;28;20046;-84
2021/08/07 07:55:41;;;;;;;60.85;57.95;;;;;;;;;;4986957;28;20061;-83
2021/08/07 07:58:08;;;;;;;61.95;58.95;;;;;;;;;;4997710;28;20092;-84
2021/08/07 08:00:39;;;;;;;67.28;64.40;;;;;;;;;;4996099;28;20108;-84
2021/08/07 08:03:09;;;;;;;55.40;53.08;;;;;;;;;;4996934;28;20054;-84
2021/08/07 08:05:36;;;;;;;73.43;70.47;;;;;;;;;;4997576;28;20102;-84
2021/08/07 08:08:03;;;;;;;68.57;65.68;;;;;;;;;;4996457;28;20050;-84
2021/08/07 08:10:30;;;;;;;61.15;58.50;;;;;;;;;;4997817;28;20053;-83
2021/08/07 08:12:57;;;;;;;79.00;75.70;;;;;;;;;;4998531;28;20058;-83
2021/08/07 08:15:24;;;;;;;60.92;58.13;;;;;;;;;;4998039;28;20062;-84
2021/08/07 08:17:52;;;;;;;94.45;90.20;;;;;;;;;;4996779;28;20050;-84
2021/08/07 08:20:19;;;;;;;79.50;76.05;;;;;;;;;;4997354;28;20046;-83
2021/08/07 08:22:46;;;;;;;84.72;81.10;;;;;;;;;;4980308;28;20057;-83
2021/08/07 08:25:13;;;;;;;89.43;85.63;;;;;;;;;;4996668;28;20053;-84
2021/08/07 08:27:40;;;;;;;112.65;107.55;;;;;;;;;;4997575;28;20498;-84
2021/08/07 08:30:09;;;;;;;107.35;102.60;;;;;;;;;;4998130;28;20054;-83
2021/08/07 08:32:35;;;;;;;84.65;81.05;;;;;;;;;;4998243;28;20050;-83
2021/08/07 08:35:04;;;;;;;93.75;89.72;;;;;;;;;;4998455;28;20042;-82
2021/08/07 08:37:31;;;;;;;106.00;101.43;;;;;;;;;;4997702;28;20057;-83
2021/08/07 08:39:58;;;;;;;75.35;72.10;;;;;;;;;;4996381;28;20042;-83
2021/08/07 08:42:26;;;;;;;87.60;83.82;;;;;;;;;;4996245;28;20056;-83
2021/08/07 08:44:52;;;;;;;102.80;98.18;;;;;;;;;;4996661;28;20446;-82
2021/08/07 08:47:22;;;;;;;86.10;82.22;;;;;;;;;;4995809;28;20047;-83
2021/08/07 08:49:51;;;;;;;89.15;85.13;;;;;;;;;;4997893;28;20046;-84
2021/08/07 08:52:22;;;;;;;73.72;70.40;;;;;;;;;;4998127;28;20487;-84
2021/08/07 08:54:49;;;;;;;74.50;71.32;;;;;;;;;;4997923;28;20046;-84
2021/08/07 08:57:16;;;;;;;88.22;84.53;;;;;;;;;;4998150;28;20050;-84
2021/08/07 08:59:43;;;;;;;89.78;85.95;;;;;;;;;;4996862;28;20050;-84
2021/08/07 09:02:10;;;;;;;86.85;83.13;;;;;;;;;;4998846;28;20053;-84
2021/08/07 09:04:37;;;;;;;85.05;81.40;;;;;;;;;;5000290;28;20057;-84
2021/08/07 09:07:04;;;;;;;112.05;102.45;;;;;;;;;;4999376;28;20054;-84
2021/08/07 09:09:40;;;;;;;98.38;92.30;;;;;;;;;;5000233;28;20046;-84
2021/08/07 09:12:08;;;;;;;84.90;80.07;;;;;;;;;;4999817;28;20060;-84
2021/08/07 09:14:37;;;;;;;84.47;79.75;;;;;;;;;;4999012;28;20050;-82
2021/08/07 09:17:13;;;;;;;102.30;96.68;;;;;;;;;;5000137;28;20050;-83
2021/08/07 09:19:53;;;;;;;102.43;97.20;;;;;;;;;;4996215;28;20043;-83
2021/08/07 09:22:23;;;;;;;104.40;99.18;;;;;;;;;;4992198;28;20054;-83
2021/08/07 09:25:08;;;;;;;119.88;114.03;;;;;;;;;;4990393;28;20046;-84
2021/08/07 09:27:36;;;;;;;111.97;106.72;;;;;;;;;;4999191;28;20050;-85
2021/08/07 09:30:07;;;;;;;132.05;126.13;;;;;;;;;;4994193;28;20042;-85
2021/08/07 09:32:47;;;;;;;158.65;150.82;;;;;;;;;;4992642;28;20050;-85
2021/08/07 09:35:16;;;;;;;168.93;161.07;;;;;;;;;;4999484;28;20057;-85
2021/08/07 09:37:43;;;;;;;176.45;168.65;;;;;;;;;;5000250;28;20097;-83
2021/08/07 09:40:14;;;;;;;173.60;165.80;;;;;;;;;;4999160;28;20059;-84
2021/08/07 09:42:51;;;;;;;188.60;180.23;;;;;;;;;;5001351;28;20046;-85
2021/08/07 09:45:18;;;;;;;189.82;181.20;;;;;;;;;;4983322;28;20050;-84
2021/08/07 09:47:57;;;;;;;169.98;162.50;;;;;;;;;;5000960;28;20050;-84
2021/08/07 09:50:27;;;;;;;180.40;172.27;;;;;;;;;;4983456;28;20054;-83
2021/08/07 09:52:54;;;;;;;189.32;180.98;;;;;;;;;;5003102;28;20050;-83
2021/08/07 09:55:22;;;;;;;210.32;200.63;;;;;;;;;;5002407;28;20042;-83
2021/08/07 09:58:01;;;;;;;166.07;158.90;;;;;;;;;;5002192;28;20046;-83
2021/08/07 10:00:35;;;;;;;190.43;182.15;;;;;;;;;;4988459;28;20463;-83
2021/08/07 10:03:14;;;;;;;192.75;184.27;;;;;;;;;;4992442;28;20057;-84
2021/08/07 10:05:40;;;;;;;154.40;147.57;;;;;;;;;;4998622;28;20472;-84
2021/08/07 10:08:07;;;;;;;159.07;151.85;;;;;;;;;;4998765;28;20050;-84
2021/08/07 10:10:35;;;;;;;147.43;140.95;;;;;;;;;;4999426;28;20043;-84
2021/08/07 10:13:02;;;;;;;164.35;157.10;;;;;;;;;;4998308;28;20046;-84
2021/08/07 10:15:31;;;;;;;157.52;150.60;;;;;;;;;;4997429;28;20061;-85
2021/08/07 10:17:57;;;;;;;193.75;184.88;;;;;;;;;;4996983;28;20055;-83
2021/08/07 10:20:24;;;;;;;195.73;186.85;;;;;;;;;;4996661;28;20046;-84
2021/08/07 10:22:51;;;;;;;212.07;202.20;;;;;;;;;;4995482;28;20054;-84
2021/08/07 10:25:18;;;;;;;200.85;191.48;;;;;;;;;;4992374;28;20058;-84
2021/08/07 10:27:47;;;;;;;220.98;210.98;;;;;;;;;;4984854;28;20590;-85
2021/08/07 10:30:13;;;;;;;183.23;174.85;;;;;;;;;;4995182;28;20038;-82
2021/08/07 10:32:40;;;;;;;205.20;195.90;;;;;;;;;;4992274;28;20042;-83
2021/08/07 10:35:08;;;;;;;210.35;200.85;;;;;;;;;;4997660;28;20503;-82
2021/08/07 10:37:35;;;;;;;197.30;188.30;;;;;;;;;;4996474;28;20054;-83
2021/08/07 10:40:03;;;;;;;217.00;206.95;;;;;;;;;;4997344;28;20050;-82
2021/08/07 10:42:32;;;;;;;199.40;190.35;;;;;;;;;;4996894;28;20069;-84
2021/08/07 10:45:00;;;;;;;208.85;199.23;;;;;;;;;;4995666;28;20077;-84
2021/08/07 10:47:37;;;;;;;195.20;186.60;;;;;;;;;;4994804;28;20073;-84
2021/08/07 10:50:35;;;;;;;167.90;160.70;;;;;;;;;;4996509;28;20043;-84
2021/08/07 10:53:04;;;;;;;190.45;181.80;;;;;;;;;;4991081;28;20046;-83
2021/08/07 10:55:46;;;;;;;198.32;189.68;;;;;;;;;;4998023;28;20143;-83
2021/08/07 10:58:43;;;;;;;190.18;181.50;;;;;;;;;;4996273;28;20053;-83
2021/08/07 11:01:31;;;;;;;177.18;169.35;;;;;;;;;;4950239;28;20050;-83
2021/08/07 11:04:11;;;;;;;202.45;193.00;;;;;;;;;;4999813;28;20137;-83
2021/08/07 11:06:52;;;;;;;181.90;173.45;;;;;;;;;;4990493;28;20038;-83
2021/08/07 11:09:22;;;;;;;183.95;175.90;;;;;;;;;;4997923;28;20046;-85
2021/08/07 11:11:50;;;;;;;173.57;165.68;;;;;;;;;;4996200;28;20042;-83
2021/08/07 11:14:47;;;;;;;171.73;164.18;;;;;;;;;;4998596;28;20050;-82
2021/08/07 11:17:35;;;;;;;188.90;180.55;;;;;;;;;;4989985;28;20071;-85
2021/08/07 11:20:11;;;;;;;184.18;176.35;;;;;;;;;;4992434;28;20061;-84
2021/08/07 11:23:17;;;;;;;164.77;157.68;;;;;;;;;;4976574;28;20274;-85
2021/08/07 11:26:03;;;;;;;158.60;152.10;;;;;;;;;;4977815;28;20081;-84
2021/08/07 11:28:31;;;;;;;186.15;178.32;;;;;;;;;;4979542;28;20046;-85
2021/08/07 11:31:29;;;;;;;177.90;170.07;;;;;;;;;;4977657;28;20474;-85
2021/08/07 11:34:26;;;;;;;163.80;156.65;;;;;;;;;;4979902;28;20046;-85
2021/08/07 11:37:12;;;;;;;173.88;166.00;;;;;;;;;;4979370;28;20047;-85
2021/08/07 11:40:19;;;;;;;152.68;146.00;;;;;;;;;;4980039;28;20484;-84
2021/08/07 11:42:50;;;;;;;188.02;179.77;;;;;;;;;;4980590;28;20050;-85
2021/08/07 11:45:19;;;;;;;188.02;179.85;;;;;;;;;;4990813;28;20048;-84
2021/08/07 11:47:47;;;;;;;180.07;172.27;;;;;;;;;;4983827;28;20050;-84
2021/08/07 11:50:16;;;;;;;190.73;182.18;;;;;;;;;;5000096;28;20048;-85
2021/08/07 11:52:43;;;;;;;178.23;170.63;;;;;;;;;;4993907;28;20101;-84
2021/08/07 11:55:11;;;;;;;204.10;195.25;;;;;;;;;;4970246;28;20141;-84
2021/08/07 11:57:42;;;;;;;202.13;193.07;;;;;;;;;;4992265;28;20057;-84
2021/08/07 12:00:35;;;;;;;191.10;182.57;;;;;;;;;;4999793;28;20057;-84
2021/08/07 12:03:05;;;;;;;216.32;206.65;;;;;;;;;;4986755;28;20050;-85
2021/08/07 12:05:35;;;;;;;199.93;191.32;;;;;;;;;;5001001;28;20502;-84
2021/08/07 12:08:07;;;;;;;190.50;182.13;;;;;;;;;;4997269;28;20053;-83
2021/08/07 12:10:35;;;;;;;201.35;192.63;;;;;;;;;;5000703;28;20061;-84
2021/08/07 12:13:02;;;;;;;188.13;179.75;;;;;;;;;;5000592;28;20490;-84
2021/08/07 12:15:30;;;;;;;191.10;182.73;;;;;;;;;;5000838;28;20050;-85
2021/08/07 12:17:59;;;;;;;214.40;205.02;;;;;;;;;;5001784;28;20046;-85
2021/08/07 12:20:26;;;;;;;221.70;212.02;;;;;;;;;;5000399;28;20042;-84
2021/08/07 12:22:56;;;;;;;202.65;193.77;;;;;;;;;;5001749;28;20054;-84
2021/08/07 12:25:23;;;;;;;215.52;206.05;;;;;;;;;;4989452;28;20501;-83
2021/08/07 12:28:04;;;;;;;198.10;189.38;;;;;;;;;;4996681;28;20045;-83
2021/08/07 12:30:31;;;;;;;193.15;184.85;;;;;;;;;;4990333;28;20046;-84
2021/08/07 12:33:20;;;;;;;201.30;192.50;;;;;;;;;;4992109;28;20054;-83
2021/08/07 12:35:48;;;;;;;176.82;169.02;;;;;;;;;;4994419;28;20049;-84
2021/08/07 12:38:18;;;;;;;180.15;172.20;;;;;;;;;;5000099;28;20598;-83
2021/08/07 12:40:46;;;;;;;167.68;159.68;;;;;;;;;;4999790;28;20097;-84
2021/08/07 12:43:14;;;;;;;156.10;148.93;;;;;;;;;;4995399;28;20509;-84
2021/08/07 12:45:40;;;;;;;167.80;159.98;;;;;;;;;;4996489;28;20057;-85
2021/08/07 12:48:07;;;;;;;174.48;166.23;;;;;;;;;;4986923;28;20050;-85
2021/08/07 12:50:34;;;;;;;158.25;150.77;;;;;;;;;;4989283;28;20039;-85
2021/08/07 12:53:03;;;;;;;149.55;142.65;;;;;;;;;;4992670;28;20046;-84
2021/08/07 12:55:33;;;;;;;163.60;156.02;;;;;;;;;;5000005;28;20047;-83
2021/08/07 12:58:14;;;;;;;164.57;156.95;;;;;;;;;;4996697;28;20427;-85
2021/08/07 13:00:41;;;;;;;183.95;175.20;;;;;;;;;;4990377;28;20097;-84
2021/08/07 13:03:09;;;;;;;177.75;169.88;;;;;;;;;;4995012;28;20049;-83
2021/08/07 13:05:37;;;;;;;176.20;168.45;;;;;;;;;;4997097;28;20046;-84
2021/08/07 13:08:25;;;;;;;148.10;141.50;;;;;;;;;;4993067;28;20069;-84
2021/08/07 13:11:07;;;;;;;134.60;128.45;;;;;;;;;;4983859;28;20057;-84
2021/08/07 13:13:43;;;;;;;166.43;159.05;;;;;;;;;;4990579;28;20039;-84
2021/08/07 13:16:10;;;;;;;159.88;152.90;;;;;;;;;;4985885;28;20122;-85
2021/08/07 13:18:37;;;;;;;160.07;153.05;;;;;;;;;;4986619;28;20047;-85
2021/08/07 13:21:05;;;;;;;156.82;149.63;;;;;;;;;;4988836;28;20047;-86
2021/08/07 13:23:37;;;;;;;148.50;142.07;;;;;;;;;;4995136;28;20054;-84
2021/08/07 13:26:10;;;;;;;145.48;139.15;;;;;;;;;;4986633;28;20363;-83
2021/08/07 13:28:37;;;;;;;158.82;151.82;;;;;;;;;;4990816;28;20047;-84
2021/08/07 13:31:05;;;;;;;143.13;137.05;;;;;;;;;;4996833;28;20043;-83
2021/08/07 13:33:33;;;;;;;140.60;134.60;;;;;;;;;;4995632;28;20061;-83
2021/08/07 13:36:00;;;;;;;138.52;132.63;;;;;;;;;;4999956;28;20056;-83
2021/08/07 13:38:28;;;;;;;140.25;134.00;;;;;;;;;;4997110;28;20056;-83
2021/08/07 13:41:09;;;;;;;133.70;127.78;;;;;;;;;;4996598;28;20051;-85
2021/08/07 13:43:36;;;;;;;158.50;151.50;;;;;;;;;;4997490;28;20098;-83
2021/08/07 13:46:04;;;;;;;166.88;159.55;;;;;;;;;;4997761;28;20038;-85
2021/08/07 13:48:33;;;;;;;139.23;133.07;;;;;;;;;;4992948;28;20115;-85
2021/08/07 13:51:00;;;;;;;157.10;150.25;;;;;;;;;;4998278;28;20045;-85
2021/08/07 13:53:26;;;;;;;152.35;145.68;;;;;;;;;;5000329;28;20162;-83
2021/08/07 13:55:53;;;;;;;146.93;140.48;;;;;;;;;;4968347;28;20047;-83
2021/08/07 13:58:22;;;;;;;150.25;143.55;;;;;;;;;;4997414;28;20415;-82
2021/08/07 14:00:48;;;;;;;149.00;142.32;;;;;;;;;;4988422;28;20057;-82
2021/08/07 14:03:16;;;;;;;143.48;137.07;;;;;;;;;;4981950;28;20054;-83
2021/08/07 14:05:43;;;;;;;149.30;142.90;;;;;;;;;;4987162;28;20045;-83
2021/08/07 14:08:09;;;;;;;157.57;150.65;;;;;;;;;;4987862;28;20050;-82
2021/08/07 14:10:38;;;;;;;133.25;127.25;;;;;;;;;;4995811;28;20422;-83
2021/08/07 14:13:05;;;;;;;154.82;147.98;;;;;;;;;;4995981;28;20057;-83
2021/08/07 14:15:33;;;;;;;160.77;153.70;;;;;;;;;;4996779;28;20046;-83